This is the latest recevied weather packets stored in our database for station/object SQ3RAX-13. If no packets are shown the sender has not sent any weather packets the latest 10 day(s).
| Time | Temp. | Humidity | Pressure | Rain* | Wind** | Luminosity | Snow |
|---|---|---|---|---|---|---|---|
| 1777830367 | 23.89° C | 43% | 1011 hPa | 0 mm | - | - | - |
| 1777829767 | 23.89° C | 43% | 1011 hPa | 0 mm | - | - | - |
| 1777829167 | 25° C | 28% | 1011 hPa | 0 mm | - | - | - |
| 1777828567 | 25° C | 27% | 1011 hPa | 0 mm | - | - | - |
| 1777827967 | 25° C | 40% | 1011 hPa | 0 mm | - | - | - |
| 1777827367 | 25° C | 40% | 1011 hPa | 0 mm | - | - | - |
| 1777826767 | 25.56° C | 40% | 1011 hPa | 0 mm | - | - | - |
| 1777826167 | 25.56° C | 40% | 1011 hPa | 0 mm | - | - | - |
| 1777825567 | 26.67° C | 25% | 1012 hPa | 0 mm | - | - | - |
| 1777824967 | 26.67° C | 25% | 1012 hPa | 0 mm | - | - | - |
| 1777824367 | 26.11° C | 35% | 1011 hPa | 0 mm | - | - | - |
| 1777823767 | 26.11° C | 35% | 1011 hPa | 0 mm | - | - | - |
| 1777823167 | 26.11° C | 35% | 1011 hPa | 0 mm | - | - | - |
| 1777822567 | 26.11° C | 35% | 1011 hPa | 0 mm | - | - | - |
| 1777821967 | 27.22° C | 25% | 1012 hPa | 0 mm | - | - | - |
| 1777821367 | 27.22° C | 25% | 1012 hPa | 0 mm | - | - | - |
| 1777820767 | 27.22° C | 25% | 1012 hPa | 0 mm | - | - | - |
| 1777820167 | 26.67° C | 31% | 1012 hPa | 0 mm | - | - | - |
| 1777819567 | 26.67° C | 31% | 1012 hPa | 0 mm | - | - | - |
| 1777818968 | 26.67° C | 31% | 1012 hPa | 0 mm | - | - | - |
| 1777818368 | 27.22° C | 24% | 1013 hPa | 0 mm | - | - | - |
| 1777817768 | 27.22° C | 24% | 1013 hPa | 0 mm | - | - | - |
| 1777817168 | 27.22° C | 24% | 1013 hPa | 0 mm | - | - | - |
| 1777816568 | 27.22° C | 29% | 1012 hPa | 0 mm | - | - | - |
| 1777815968 | 27.22° C | 28% | 1012 hPa | 0 mm | - | - | - |
* Rain latest hour (hover to see other rain measurements)
** Current wind speed in m/s (hover to see current wind gust speed)